sensor_id;sensor_type;location;lat;lon;timestamp;P1;durP1;ratioP1;P2;durP2;ratioP2
33279;SDS011;20403;43.114;12.434;2024-02-23T00:00:26;6.78;;;2.88;;
33279;SDS011;20403;43.114;12.434;2024-02-23T00:02:51;7.35;;;2.75;;
33279;SDS011;20403;43.114;12.434;2024-02-23T00:05:19;9.52;;;3.17;;
33279;SDS011;20403;43.114;12.434;2024-02-23T00:07:44;7.25;;;2.95;;
33279;SDS011;20403;43.114;12.434;2024-02-23T00:10:10;7.20;;;2.75;;
33279;SDS011;20403;43.114;12.434;2024-02-23T00:12:35;6.38;;;2.97;;
33279;SDS011;20403;43.114;12.434;2024-02-23T00:15:01;9.38;;;3.40;;
33279;SDS011;20403;43.114;12.434;2024-02-23T00:17:26;7.82;;;2.83;;
33279;SDS011;20403;43.114;12.434;2024-02-23T00:19:52;10.43;;;2.95;;
33279;SDS011;20403;43.114;12.434;2024-02-23T00:22:18;11.02;;;3.63;;
33279;SDS011;20403;43.114;12.434;2024-02-23T00:24:43;8.35;;;2.85;;
33279;SDS011;20403;43.114;12.434;2024-02-23T00:27:09;10.30;;;3.17;;
33279;SDS011;20403;43.114;12.434;2024-02-23T00:29:34;7.22;;;3.58;;
33279;SDS011;20403;43.114;12.434;2024-02-23T00:32:00;9.20;;;2.90;;
33279;SDS011;20403;43.114;12.434;2024-02-23T00:34:26;9.73;;;2.75;;
33279;SDS011;20403;43.114;12.434;2024-02-23T00:36:51;6.90;;;2.80;;
33279;SDS011;20403;43.114;12.434;2024-02-23T00:39:17;11.20;;;3.50;;
33279;SDS011;20403;43.114;12.434;2024-02-23T00:41:42;9.35;;;2.72;;
33279;SDS011;20403;43.114;12.434;2024-02-23T00:44:07;10.52;;;3.15;;
33279;SDS011;20403;43.114;12.434;2024-02-23T00:46:33;5.15;;;2.45;;
33279;SDS011;20403;43.114;12.434;2024-02-23T00:48:59;8.18;;;2.97;;
33279;SDS011;20403;43.114;12.434;2024-02-23T00:51:25;7.65;;;2.83;;
33279;SDS011;20403;43.114;12.434;2024-02-23T00:53:50;10.88;;;2.90;;
33279;SDS011;20403;43.114;12.434;2024-02-23T00:56:16;10.27;;;2.85;;
33279;SDS011;20403;43.114;12.434;2024-02-23T00:58:41;7.50;;;2.60;;
33279;SDS011;20403;43.114;12.434;2024-02-23T01:01:06;12.88;;;2.55;;
33279;SDS011;20403;43.114;12.434;2024-02-23T01:03:33;5.65;;;2.40;;
33279;SDS011;20403;43.114;12.434;2024-02-23T01:05:58;11.40;;;3.42;;
33279;SDS011;20403;43.114;12.434;2024-02-23T01:08:24;7.88;;;2.45;;
33279;SDS011;20403;43.114;12.434;2024-02-23T01:10:49;6.32;;;2.83;;
33279;SDS011;20403;43.114;12.434;2024-02-23T01:13:15;9.95;;;3.05;;
33279;SDS011;20403;43.114;12.434;2024-02-23T01:15:41;11.98;;;3.10;;
33279;SDS011;20403;43.114;12.434;2024-02-23T01:18:07;9.25;;;2.90;;
33279;SDS011;20403;43.114;12.434;2024-02-23T01:20:32;6.03;;;2.65;;
33279;SDS011;20403;43.114;12.434;2024-02-23T01:22:58;12.48;;;2.95;;
33279;SDS011;20403;43.114;12.434;2024-02-23T01:25:23;8.45;;;3.03;;
33279;SDS011;20403;43.114;12.434;2024-02-23T01:27:49;8.20;;;3.30;;
33279;SDS011;20403;43.114;12.434;2024-02-23T01:30:15;6.47;;;2.60;;
33279;SDS011;20403;43.114;12.434;2024-02-23T01:32:40;9.20;;;3.35;;
33279;SDS011;20403;43.114;12.434;2024-02-23T01:35:06;8.60;;;2.80;;
33279;SDS011;20403;43.114;12.434;2024-02-23T01:37:32;9.18;;;2.75;;
33279;SDS011;20403;43.114;12.434;2024-02-23T01:39:58;7.80;;;2.58;;
33279;SDS011;20403;43.114;12.434;2024-02-23T01:42:24;8.20;;;3.00;;
33279;SDS011;20403;43.114;12.434;2024-02-23T01:44:51;8.30;;;3.42;;
33279;SDS011;20403;43.114;12.434;2024-02-23T01:47:16;10.02;;;2.83;;
33279;SDS011;20403;43.114;12.434;2024-02-23T01:49:42;7.65;;;2.67;;
33279;SDS011;20403;43.114;12.434;2024-02-23T01:52:09;8.18;;;3.08;;
33279;SDS011;20403;43.114;12.434;2024-02-23T01:54:35;6.55;;;2.60;;
33279;SDS011;20403;43.114;12.434;2024-02-23T01:57:01;5.57;;;2.67;;
33279;SDS011;20403;43.114;12.434;2024-02-23T01:59:27;6.25;;;2.58;;
33279;SDS011;20403;43.114;12.434;2024-02-23T02:01:53;10.75;;;2.85;;
33279;SDS011;20403;43.114;12.434;2024-02-23T02:04:18;5.68;;;2.35;;
33279;SDS011;20403;43.114;12.434;2024-02-23T02:06:45;9.18;;;2.97;;
33279;SDS011;20403;43.114;12.434;2024-02-23T02:09:11;5.72;;;2.63;;
33279;SDS011;20403;43.114;12.434;2024-02-23T02:11:49;5.00;;;2.55;;
33279;SDS011;20403;43.114;12.434;2024-02-23T02:14:15;8.55;;;2.55;;
33279;SDS011;20403;43.114;12.434;2024-02-23T02:16:41;11.15;;;3.28;;
33279;SDS011;20403;43.114;12.434;2024-02-23T02:19:06;5.53;;;2.40;;
33279;SDS011;20403;43.114;12.434;2024-02-23T02:21:32;8.45;;;2.95;;
33279;SDS011;20403;43.114;12.434;2024-02-23T02:23:58;9.68;;;2.53;;
33279;SDS011;20403;43.114;12.434;2024-02-23T02:26:24;6.32;;;2.50;;
33279;SDS011;20403;43.114;12.434;2024-02-23T02:28:49;9.55;;;2.80;;
33279;SDS011;20403;43.114;12.434;2024-02-23T02:31:15;6.57;;;2.70;;
33279;SDS011;20403;43.114;12.434;2024-02-23T02:33:40;7.22;;;2.85;;
33279;SDS011;20403;43.114;12.434;2024-02-23T02:36:06;8.75;;;2.92;;
33279;SDS011;20403;43.114;12.434;2024-02-23T02:38:32;11.10;;;3.33;;
33279;SDS011;20403;43.114;12.434;2024-02-23T02:41:00;11.50;;;2.60;;
33279;SDS011;20403;43.114;12.434;2024-02-23T02:43:26;13.57;;;2.75;;
33279;SDS011;20403;43.114;12.434;2024-02-23T02:45:52;8.40;;;3.17;;
33279;SDS011;20403;43.114;12.434;2024-02-23T02:48:17;4.88;;;2.50;;
33279;SDS011;20403;43.114;12.434;2024-02-23T02:50:43;11.23;;;3.00;;
33279;SDS011;20403;43.114;12.434;2024-02-23T02:53:09;11.40;;;2.92;;
33279;SDS011;20403;43.114;12.434;2024-02-23T02:55:35;9.93;;;2.80;;
33279;SDS011;20403;43.114;12.434;2024-02-23T02:58:06;12.63;;;4.13;;
33279;SDS011;20403;43.114;12.434;2024-02-23T03:00:32;6.75;;;2.83;;
33279;SDS011;20403;43.114;12.434;2024-02-23T03:02:57;10.10;;;2.78;;
33279;SDS011;20403;43.114;12.434;2024-02-23T03:05:22;11.25;;;2.78;;
33279;SDS011;20403;43.114;12.434;2024-02-23T03:07:48;6.72;;;2.85;;
33279;SDS011;20403;43.114;12.434;2024-02-23T03:10:13;9.45;;;2.60;;
33279;SDS011;20403;43.114;12.434;2024-02-23T03:12:39;9.38;;;2.67;;
33279;SDS011;20403;43.114;12.434;2024-02-23T03:15:04;10.50;;;2.67;;
33279;SDS011;20403;43.114;12.434;2024-02-23T03:17:31;7.82;;;3.08;;
33279;SDS011;20403;43.114;12.434;2024-02-23T03:19:56;6.43;;;2.30;;
33279;SDS011;20403;43.114;12.434;2024-02-23T03:22:22;8.68;;;3.00;;
33279;SDS011;20403;43.114;12.434;2024-02-23T03:24:48;20.13;;;3.03;;
33279;SDS011;20403;43.114;12.434;2024-02-23T03:27:13;9.90;;;2.60;;
33279;SDS011;20403;43.114;12.434;2024-02-23T03:29:39;7.97;;;2.60;;
33279;SDS011;20403;43.114;12.434;2024-02-23T03:32:04;6.18;;;3.40;;
33279;SDS011;20403;43.114;12.434;2024-02-23T03:34:30;5.53;;;2.25;;
33279;SDS011;20403;43.114;12.434;2024-02-23T03:36:56;10.38;;;2.80;;
33279;SDS011;20403;43.114;12.434;2024-02-23T03:39:21;6.85;;;3.10;;
33279;SDS011;20403;43.114;12.434;2024-02-23T03:41:47;7.32;;;2.63;;
33279;SDS011;20403;43.114;12.434;2024-02-23T03:44:12;6.72;;;2.95;;
33279;SDS011;20403;43.114;12.434;2024-02-23T03:46:38;12.73;;;2.92;;
33279;SDS011;20403;43.114;12.434;2024-02-23T03:49:03;15.38;;;3.63;;
33279;SDS011;20403;43.114;12.434;2024-02-23T03:51:28;12.05;;;3.13;;
33279;SDS011;20403;43.114;12.434;2024-02-23T03:53:54;6.68;;;3.20;;
33279;SDS011;20403;43.114;12.434;2024-02-23T03:56:19;7.10;;;2.70;;
33279;SDS011;20403;43.114;12.434;2024-02-23T03:58:45;7.88;;;2.95;;
33279;SDS011;20403;43.114;12.434;2024-02-23T04:01:10;15.20;;;4.85;;
33279;SDS011;20403;43.114;12.434;2024-02-23T04:03:36;7.40;;;3.10;;
33279;SDS011;20403;43.114;12.434;2024-02-23T04:06:01;9.10;;;2.47;;
33279;SDS011;20403;43.114;12.434;2024-02-23T04:08:26;6.72;;;3.13;;
33279;SDS011;20403;43.114;12.434;2024-02-23T04:10:52;9.95;;;3.13;;
33279;SDS011;20403;43.114;12.434;2024-02-23T04:13:17;8.60;;;2.90;;
33279;SDS011;20403;43.114;12.434;2024-02-23T04:15:43;9.07;;;3.15;;
33279;SDS011;20403;43.114;12.434;2024-02-23T04:18:09;10.13;;;2.80;;
33279;SDS011;20403;43.114;12.434;2024-02-23T04:20:34;9.95;;;3.20;;
33279;SDS011;20403;43.114;12.434;2024-02-23T04:23:00;10.35;;;2.80;;
33279;SDS011;20403;43.114;12.434;2024-02-23T04:25:25;7.63;;;2.58;;
33279;SDS011;20403;43.114;12.434;2024-02-23T04:27:50;8.18;;;2.38;;
33279;SDS011;20403;43.114;12.434;2024-02-23T04:30:16;9.55;;;3.10;;
33279;SDS011;20403;43.114;12.434;2024-02-23T04:32:41;12.80;;;2.80;;
33279;SDS011;20403;43.114;12.434;2024-02-23T04:35:07;7.32;;;2.70;;
33279;SDS011;20403;43.114;12.434;2024-02-23T04:37:33;6.85;;;2.55;;
33279;SDS011;20403;43.114;12.434;2024-02-23T04:39:59;8.98;;;3.38;;
33279;SDS011;20403;43.114;12.434;2024-02-23T04:42:24;7.05;;;2.70;;
33279;SDS011;20403;43.114;12.434;2024-02-23T04:44:50;11.30;;;2.80;;
33279;SDS011;20403;43.114;12.434;2024-02-23T04:47:17;10.68;;;2.83;;
33279;SDS011;20403;43.114;12.434;2024-02-23T04:49:43;8.40;;;2.90;;
33279;SDS011;20403;43.114;12.434;2024-02-23T04:52:08;8.43;;;2.72;;
33279;SDS011;20403;43.114;12.434;2024-02-23T04:54:34;6.43;;;2.42;;
33279;SDS011;20403;43.114;12.434;2024-02-23T04:57:00;9.98;;;3.15;;
33279;SDS011;20403;43.114;12.434;2024-02-23T04:59:26;7.75;;;2.53;;
33279;SDS011;20403;43.114;12.434;2024-02-23T05:01:51;6.13;;;2.85;;
33279;SDS011;20403;43.114;12.434;2024-02-23T05:04:16;8.18;;;3.25;;
33279;SDS011;20403;43.114;12.434;2024-02-23T05:06:42;5.72;;;2.65;;
33279;SDS011;20403;43.114;12.434;2024-02-23T05:09:08;10.40;;;3.22;;
33279;SDS011;20403;43.114;12.434;2024-02-23T05:11:34;8.13;;;2.70;;
33279;SDS011;20403;43.114;12.434;2024-02-23T05:14:00;8.65;;;2.80;;
33279;SDS011;20403;43.114;12.434;2024-02-23T05:16:25;7.45;;;2.80;;
33279;SDS011;20403;43.114;12.434;2024-02-23T05:18:51;8.50;;;2.92;;
33279;SDS011;20403;43.114;12.434;2024-02-23T05:21:17;8.23;;;3.38;;
33279;SDS011;20403;43.114;12.434;2024-02-23T05:23:42;9.90;;;3.20;;
33279;SDS011;20403;43.114;12.434;2024-02-23T05:26:08;8.13;;;3.10;;
33279;SDS011;20403;43.114;12.434;2024-02-23T05:28:33;5.72;;;2.55;;
33279;SDS011;20403;43.114;12.434;2024-02-23T05:30:58;10.50;;;3.22;;
33279;SDS011;20403;43.114;12.434;2024-02-23T05:33:24;8.13;;;3.17;;
33279;SDS011;20403;43.114;12.434;2024-02-23T05:35:50;8.68;;;2.75;;
33279;SDS011;20403;43.114;12.434;2024-02-23T05:38:15;8.70;;;3.08;;
33279;SDS011;20403;43.114;12.434;2024-02-23T05:40:41;7.95;;;2.92;;
33279;SDS011;20403;43.114;12.434;2024-02-23T05:43:07;8.25;;;2.90;;
33279;SDS011;20403;43.114;12.434;2024-02-23T05:45:32;9.07;;;3.28;;
33279;SDS011;20403;43.114;12.434;2024-02-23T05:47:58;8.55;;;2.95;;
33279;SDS011;20403;43.114;12.434;2024-02-23T05:50:23;9.68;;;3.60;;
33279;SDS011;20403;43.114;12.434;2024-02-23T05:52:49;9.45;;;3.20;;
33279;SDS011;20403;43.114;12.434;2024-02-23T05:55:14;8.23;;;3.50;;
33279;SDS011;20403;43.114;12.434;2024-02-23T05:57:40;7.68;;;3.45;;
33279;SDS011;20403;43.114;12.434;2024-02-23T06:00:06;5.65;;;3.03;;
33279;SDS011;20403;43.114;12.434;2024-02-23T06:02:35;10.70;;;2.90;;
33279;SDS011;20403;43.114;12.434;2024-02-23T06:05:00;5.70;;;3.08;;
33279;SDS011;20403;43.114;12.434;2024-02-23T06:07:25;9.13;;;3.15;;
33279;SDS011;20403;43.114;12.434;2024-02-23T06:09:54;8.10;;;3.13;;
33279;SDS011;20403;43.114;12.434;2024-02-23T06:12:21;12.02;;;3.17;;
33279;SDS011;20403;43.114;12.434;2024-02-23T06:14:47;11.15;;;3.75;;
33279;SDS011;20403;43.114;12.434;2024-02-23T06:17:12;9.93;;;3.50;;
33279;SDS011;20403;43.114;12.434;2024-02-23T06:19:38;11.23;;;3.58;;
33279;SDS011;20403;43.114;12.434;2024-02-23T06:22:03;10.10;;;4.03;;
33279;SDS011;20403;43.114;12.434;2024-02-23T06:24:29;8.90;;;3.35;;
33279;SDS011;20403;43.114;12.434;2024-02-23T06:26:54;9.98;;;4.10;;
33279;SDS011;20403;43.114;12.434;2024-02-23T06:29:19;5.97;;;3.55;;
33279;SDS011;20403;43.114;12.434;2024-02-23T06:31:45;11.15;;;3.83;;
33279;SDS011;20403;43.114;12.434;2024-02-23T06:34:14;14.65;;;4.60;;
33279;SDS011;20403;43.114;12.434;2024-02-23T06:36:39;10.20;;;4.30;;
33279;SDS011;20403;43.114;12.434;2024-02-23T06:39:05;8.93;;;4.35;;
33279;SDS011;20403;43.114;12.434;2024-02-23T06:41:30;13.25;;;5.07;;
33279;SDS011;20403;43.114;12.434;2024-02-23T06:43:56;12.75;;;4.03;;
33279;SDS011;20403;43.114;12.434;2024-02-23T06:46:22;15.52;;;4.35;;
33279;SDS011;20403;43.114;12.434;2024-02-23T06:48:47;9.82;;;3.88;;
33279;SDS011;20403;43.114;12.434;2024-02-23T06:51:13;9.63;;;4.50;;
33279;SDS011;20403;43.114;12.434;2024-02-23T06:53:39;13.50;;;4.50;;
33279;SDS011;20403;43.114;12.434;2024-02-23T06:56:04;11.07;;;4.40;;
33279;SDS011;20403;43.114;12.434;2024-02-23T06:58:30;14.45;;;4.68;;
33279;SDS011;20403;43.114;12.434;2024-02-23T07:00:56;12.20;;;4.43;;
33279;SDS011;20403;43.114;12.434;2024-02-23T07:03:22;13.95;;;5.70;;
33279;SDS011;20403;43.114;12.434;2024-02-23T07:05:47;17.27;;;5.03;;
33279;SDS011;20403;43.114;12.434;2024-02-23T07:08:14;12.35;;;4.65;;
33279;SDS011;20403;43.114;12.434;2024-02-23T07:10:40;14.57;;;4.78;;
33279;SDS011;20403;43.114;12.434;2024-02-23T07:13:06;14.23;;;4.97;;
33279;SDS011;20403;43.114;12.434;2024-02-23T07:15:32;11.88;;;4.70;;
33279;SDS011;20403;43.114;12.434;2024-02-23T07:17:58;16.95;;;5.80;;
33279;SDS011;20403;43.114;12.434;2024-02-23T07:20:23;14.32;;;4.57;;
33279;SDS011;20403;43.114;12.434;2024-02-23T07:22:49;12.57;;;5.18;;
33279;SDS011;20403;43.114;12.434;2024-02-23T07:25:17;12.23;;;4.20;;
33279;SDS011;20403;43.114;12.434;2024-02-23T07:27:45;13.73;;;4.85;;
33279;SDS011;20403;43.114;12.434;2024-02-23T07:30:11;10.98;;;4.82;;
33279;SDS011;20403;43.114;12.434;2024-02-23T07:32:37;16.92;;;5.40;;
33279;SDS011;20403;43.114;12.434;2024-02-23T07:35:03;16.73;;;5.78;;
33279;SDS011;20403;43.114;12.434;2024-02-23T07:37:29;21.55;;;4.90;;
33279;SDS011;20403;43.114;12.434;2024-02-23T07:39:55;11.75;;;5.00;;
33279;SDS011;20403;43.114;12.434;2024-02-23T07:42:20;13.18;;;4.60;;
33279;SDS011;20403;43.114;12.434;2024-02-23T07:44:46;12.77;;;4.90;;
33279;SDS011;20403;43.114;12.434;2024-02-23T07:47:11;12.20;;;4.53;;
33279;SDS011;20403;43.114;12.434;2024-02-23T07:49:37;12.52;;;4.85;;
33279;SDS011;20403;43.114;12.434;2024-02-23T07:52:05;14.70;;;5.00;;
33279;SDS011;20403;43.114;12.434;2024-02-23T07:54:31;16.92;;;5.35;;
33279;SDS011;20403;43.114;12.434;2024-02-23T07:56:57;13.32;;;5.30;;
33279;SDS011;20403;43.114;12.434;2024-02-23T07:59:22;12.43;;;4.78;;
33279;SDS011;20403;43.114;12.434;2024-02-23T08:01:48;17.33;;;4.70;;
33279;SDS011;20403;43.114;12.434;2024-02-23T08:04:13;10.65;;;4.38;;
33279;SDS011;20403;43.114;12.434;2024-02-23T08:06:39;16.27;;;5.32;;
33279;SDS011;20403;43.114;12.434;2024-02-23T08:09:05;18.50;;;5.57;;
33279;SDS011;20403;43.114;12.434;2024-02-23T08:11:30;20.75;;;5.45;;
33279;SDS011;20403;43.114;12.434;2024-02-23T08:13:55;14.20;;;5.00;;
33279;SDS011;20403;43.114;12.434;2024-02-23T08:16:21;23.67;;;5.57;;
33279;SDS011;20403;43.114;12.434;2024-02-23T08:18:46;18.42;;;5.75;;
33279;SDS011;20403;43.114;12.434;2024-02-23T08:21:12;20.02;;;5.75;;
33279;SDS011;20403;43.114;12.434;2024-02-23T08:23:37;19.58;;;5.93;;
33279;SDS011;20403;43.114;12.434;2024-02-23T08:26:03;15.80;;;5.38;;
33279;SDS011;20403;43.114;12.434;2024-02-23T08:28:28;21.17;;;6.38;;
33279;SDS011;20403;43.114;12.434;2024-02-23T08:30:54;26.48;;;6.25;;
33279;SDS011;20403;43.114;12.434;2024-02-23T08:33:20;18.45;;;5.20;;
33279;SDS011;20403;43.114;12.434;2024-02-23T08:35:45;19.25;;;5.88;;
33279;SDS011;20403;43.114;12.434;2024-02-23T08:38:14;17.98;;;5.18;;
33279;SDS011;20403;43.114;12.434;2024-02-23T08:40:40;17.00;;;5.47;;
33279;SDS011;20403;43.114;12.434;2024-02-23T08:43:05;24.40;;;5.88;;
33279;SDS011;20403;43.114;12.434;2024-02-23T08:45:30;19.98;;;5.90;;
33279;SDS011;20403;43.114;12.434;2024-02-23T08:47:56;16.67;;;5.90;;
33279;SDS011;20403;43.114;12.434;2024-02-23T08:50:22;21.77;;;6.20;;
33279;SDS011;20403;43.114;12.434;2024-02-23T08:52:47;19.02;;;5.70;;
33279;SDS011;20403;43.114;12.434;2024-02-23T08:55:13;21.40;;;6.25;;
33279;SDS011;20403;43.114;12.434;2024-02-23T08:57:38;26.58;;;6.40;;
33279;SDS011;20403;43.114;12.434;2024-02-23T09:00:04;15.65;;;5.78;;
33279;SDS011;20403;43.114;12.434;2024-02-23T09:02:30;19.60;;;7.28;;
33279;SDS011;20403;43.114;12.434;2024-02-23T09:04:57;24.13;;;6.75;;
33279;SDS011;20403;43.114;12.434;2024-02-23T09:07:23;18.38;;;5.95;;
33279;SDS011;20403;43.114;12.434;2024-02-23T09:09:49;22.08;;;6.43;;
33279;SDS011;20403;43.114;12.434;2024-02-23T09:12:15;22.15;;;6.20;;
33279;SDS011;20403;43.114;12.434;2024-02-23T09:14:42;29.10;;;6.50;;
33279;SDS011;20403;43.114;12.434;2024-02-23T09:17:08;24.60;;;6.15;;
33279;SDS011;20403;43.114;12.434;2024-02-23T09:19:37;21.13;;;6.13;;
33279;SDS011;20403;43.114;12.434;2024-02-23T09:22:03;26.48;;;6.55;;
33279;SDS011;20403;43.114;12.434;2024-02-23T09:24:28;23.42;;;6.65;;
33279;SDS011;20403;43.114;12.434;2024-02-23T09:26:54;24.67;;;6.30;;
33279;SDS011;20403;43.114;12.434;2024-02-23T09:29:19;27.60;;;7.03;;
33279;SDS011;20403;43.114;12.434;2024-02-23T09:31:45;25.95;;;7.75;;
33279;SDS011;20403;43.114;12.434;2024-02-23T09:34:10;23.40;;;6.40;;
33279;SDS011;20403;43.114;12.434;2024-02-23T09:36:36;24.15;;;6.57;;
33279;SDS011;20403;43.114;12.434;2024-02-23T09:39:01;23.33;;;6.63;;
33279;SDS011;20403;43.114;12.434;2024-02-23T09:41:29;27.05;;;7.30;;
33279;SDS011;20403;43.114;12.434;2024-02-23T09:43:56;25.08;;;7.03;;
33279;SDS011;20403;43.114;12.434;2024-02-23T09:46:23;28.88;;;7.70;;
33279;SDS011;20403;43.114;12.434;2024-02-23T09:48:50;34.30;;;6.53;;
33279;SDS011;20403;43.114;12.434;2024-02-23T09:51:16;24.60;;;7.03;;
33279;SDS011;20403;43.114;12.434;2024-02-23T09:53:43;25.40;;;7.40;;
33279;SDS011;20403;43.114;12.434;2024-02-23T09:56:09;24.02;;;6.40;;
33279;SDS011;20403;43.114;12.434;2024-02-23T09:58:37;23.80;;;7.32;;
33279;SDS011;20403;43.114;12.434;2024-02-23T10:01:04;24.98;;;6.53;;
33279;SDS011;20403;43.114;12.434;2024-02-23T10:03:30;21.02;;;6.57;;
33279;SDS011;20403;43.114;12.434;2024-02-23T10:05:56;29.05;;;7.97;;
33279;SDS011;20403;43.114;12.434;2024-02-23T10:08:22;32.47;;;7.68;;
33279;SDS011;20403;43.114;12.434;2024-02-23T10:10:47;23.92;;;6.95;;
33279;SDS011;20403;43.114;12.434;2024-02-23T10:13:17;25.30;;;6.82;;
33279;SDS011;20403;43.114;12.434;2024-02-23T10:15:47;31.65;;;6.95;;
33279;SDS011;20403;43.114;12.434;2024-02-23T10:18:13;26.38;;;6.22;;
33279;SDS011;20403;43.114;12.434;2024-02-23T10:20:39;24.38;;;6.97;;
33279;SDS011;20403;43.114;12.434;2024-02-23T10:23:05;26.92;;;7.30;;
33279;SDS011;20403;43.114;12.434;2024-02-23T10:25:33;25.25;;;6.63;;
33279;SDS011;20403;43.114;12.434;2024-02-23T10:28:00;29.55;;;7.88;;
33279;SDS011;20403;43.114;12.434;2024-02-23T10:30:26;25.35;;;6.65;;
33279;SDS011;20403;43.114;12.434;2024-02-23T10:32:53;29.58;;;7.25;;
33279;SDS011;20403;43.114;12.434;2024-02-23T10:35:20;26.40;;;7.53;;
33279;SDS011;20403;43.114;12.434;2024-02-23T10:37:48;25.02;;;6.75;;
33279;SDS011;20403;43.114;12.434;2024-02-23T10:40:18;33.72;;;7.75;;
33279;SDS011;20403;43.114;12.434;2024-02-23T10:42:46;30.63;;;6.97;;
33279;SDS011;20403;43.114;12.434;2024-02-23T10:45:19;27.63;;;7.40;;
33279;SDS011;20403;43.114;12.434;2024-02-23T10:47:49;29.85;;;7.32;;
33279;SDS011;20403;43.114;12.434;2024-02-23T10:50:15;27.48;;;7.07;;
33279;SDS011;20403;43.114;12.434;2024-02-23T10:52:44;28.30;;;7.25;;
33279;SDS011;20403;43.114;12.434;2024-02-23T10:55:10;28.15;;;6.95;;
33279;SDS011;20403;43.114;12.434;2024-02-23T10:57:35;26.95;;;7.78;;
33279;SDS011;20403;43.114;12.434;2024-02-23T11:00:02;25.23;;;7.22;;
33279;SDS011;20403;43.114;12.434;2024-02-23T11:02:31;22.63;;;7.57;;
33279;SDS011;20403;43.114;12.434;2024-02-23T11:05:00;31.85;;;7.32;;
33279;SDS011;20403;43.114;12.434;2024-02-23T11:07:25;29.50;;;7.75;;
33279;SDS011;20403;43.114;12.434;2024-02-23T11:09:53;29.67;;;7.93;;
33279;SDS011;20403;43.114;12.434;2024-02-23T11:12:29;34.05;;;7.72;;
33279;SDS011;20403;43.114;12.434;2024-02-23T11:14:58;27.35;;;7.13;;
33279;SDS011;20403;43.114;12.434;2024-02-23T11:17:32;24.85;;;7.10;;
33279;SDS011;20403;43.114;12.434;2024-02-23T11:20:02;42.22;;;7.32;;
33279;SDS011;20403;43.114;12.434;2024-02-23T11:22:35;29.13;;;7.30;;
33279;SDS011;20403;43.114;12.434;2024-02-23T11:25:07;31.50;;;7.90;;
33279;SDS011;20403;43.114;12.434;2024-02-23T11:27:33;34.15;;;7.95;;
33279;SDS011;20403;43.114;12.434;2024-02-23T11:29:59;32.70;;;8.13;;
33279;SDS011;20403;43.114;12.434;2024-02-23T11:32:40;27.42;;;7.10;;
33279;SDS011;20403;43.114;12.434;2024-02-23T11:35:08;29.10;;;8.38;;
33279;SDS011;20403;43.114;12.434;2024-02-23T11:40:28;31.30;;;8.82;;
33279;SDS011;20403;43.114;12.434;2024-02-23T11:42:55;35.40;;;8.48;;
33279;SDS011;20403;43.114;12.434;2024-02-23T11:45:21;34.30;;;7.75;;
33279;SDS011;20403;43.114;12.434;2024-02-23T11:47:47;26.92;;;8.15;;
33279;SDS011;20403;43.114;12.434;2024-02-23T11:50:13;26.08;;;8.02;;
33279;SDS011;20403;43.114;12.434;2024-02-23T11:52:39;32.38;;;7.30;;
33279;SDS011;20403;43.114;12.434;2024-02-23T11:55:05;25.48;;;7.60;;
33279;SDS011;20403;43.114;12.434;2024-02-23T11:57:34;28.52;;;7.45;;
33279;SDS011;20403;43.114;12.434;2024-02-23T12:00:04;45.38;;;8.82;;
33279;SDS011;20403;43.114;12.434;2024-02-23T12:02:32;26.98;;;7.93;;
33279;SDS011;20403;43.114;12.434;2024-02-23T12:05:00;28.08;;;7.45;;
33279;SDS011;20403;43.114;12.434;2024-02-23T12:07:27;30.02;;;8.00;;
33279;SDS011;20403;43.114;12.434;2024-02-23T12:09:54;26.15;;;6.97;;
33279;SDS011;20403;43.114;12.434;2024-02-23T12:12:21;27.95;;;7.95;;
33279;SDS011;20403;43.114;12.434;2024-02-23T12:14:47;29.58;;;8.50;;
33279;SDS011;20403;43.114;12.434;2024-02-23T12:17:12;40.47;;;8.13;;
33279;SDS011;20403;43.114;12.434;2024-02-23T12:19:41;42.42;;;11.80;;
33279;SDS011;20403;43.114;12.434;2024-02-23T12:22:07;29.08;;;8.35;;
33279;SDS011;20403;43.114;12.434;2024-02-23T12:24:33;30.98;;;7.13;;
33279;SDS011;20403;43.114;12.434;2024-02-23T12:26:59;32.65;;;7.63;;
33279;SDS011;20403;43.114;12.434;2024-02-23T12:29:24;26.50;;;6.70;;
33279;SDS011;20403;43.114;12.434;2024-02-23T12:31:50;33.17;;;9.07;;
33279;SDS011;20403;43.114;12.434;2024-02-23T12:34:16;29.13;;;6.68;;
33279;SDS011;20403;43.114;12.434;2024-02-23T12:36:42;28.25;;;7.65;;
33279;SDS011;20403;43.114;12.434;2024-02-23T12:39:08;29.70;;;6.65;;
33279;SDS011;20403;43.114;12.434;2024-02-23T12:41:33;39.85;;;11.32;;
33279;SDS011;20403;43.114;12.434;2024-02-23T12:43:59;25.27;;;7.78;;
33279;SDS011;20403;43.114;12.434;2024-02-23T12:46:24;33.13;;;7.70;;
33279;SDS011;20403;43.114;12.434;2024-02-23T12:48:50;29.17;;;7.85;;
33279;SDS011;20403;43.114;12.434;2024-02-23T12:51:16;29.70;;;8.27;;
33279;SDS011;20403;43.114;12.434;2024-02-23T12:53:42;32.65;;;8.57;;
33279;SDS011;20403;43.114;12.434;2024-02-23T12:56:12;30.92;;;7.90;;
33279;SDS011;20403;43.114;12.434;2024-02-23T12:58:41;31.02;;;7.55;;
33279;SDS011;20403;43.114;12.434;2024-02-23T13:01:07;25.65;;;8.23;;
33279;SDS011;20403;43.114;12.434;2024-02-23T13:03:34;30.67;;;8.73;;
33279;SDS011;20403;43.114;12.434;2024-02-23T13:06:00;37.28;;;10.40;;
33279;SDS011;20403;43.114;12.434;2024-02-23T13:08:26;37.42;;;9.57;;
33279;SDS011;20403;43.114;12.434;2024-02-23T13:10:52;41.35;;;10.73;;
33279;SDS011;20403;43.114;12.434;2024-02-23T13:13:19;35.33;;;11.10;;
33279;SDS011;20403;43.114;12.434;2024-02-23T13:15:45;42.22;;;9.95;;
33279;SDS011;20403;43.114;12.434;2024-02-23T13:18:14;33.78;;;9.85;;
33279;SDS011;20403;43.114;12.434;2024-02-23T13:20:39;35.17;;;9.38;;
33279;SDS011;20403;43.114;12.434;2024-02-23T13:23:08;33.28;;;8.65;;
33279;SDS011;20403;43.114;12.434;2024-02-23T13:25:38;33.97;;;8.90;;
33279;SDS011;20403;43.114;12.434;2024-02-23T13:28:05;31.63;;;8.00;;
33279;SDS011;20403;43.114;12.434;2024-02-23T13:30:31;41.40;;;8.70;;
33279;SDS011;20403;43.114;12.434;2024-02-23T13:32:56;35.85;;;8.63;;
33279;SDS011;20403;43.114;12.434;2024-02-23T13:35:22;33.35;;;8.20;;
33279;SDS011;20403;43.114;12.434;2024-02-23T13:37:48;26.02;;;8.45;;
33279;SDS011;20403;43.114;12.434;2024-02-23T13:40:13;32.53;;;9.05;;
33279;SDS011;20403;43.114;12.434;2024-02-23T13:42:39;33.60;;;8.02;;
33279;SDS011;20403;43.114;12.434;2024-02-23T13:45:05;34.53;;;8.25;;
33279;SDS011;20403;43.114;12.434;2024-02-23T13:47:32;33.60;;;8.43;;
33279;SDS011;20403;43.114;12.434;2024-02-23T13:49:57;35.63;;;8.15;;
33279;SDS011;20403;43.114;12.434;2024-02-23T13:52:23;31.83;;;8.13;;
33279;SDS011;20403;43.114;12.434;2024-02-23T13:54:48;31.70;;;8.45;;
33279;SDS011;20403;43.114;12.434;2024-02-23T13:57:14;31.00;;;8.15;;
33279;SDS011;20403;43.114;12.434;2024-02-23T13:59:39;34.50;;;8.02;;
33279;SDS011;20403;43.114;12.434;2024-02-23T14:02:05;40.33;;;8.88;;
33279;SDS011;20403;43.114;12.434;2024-02-23T14:04:30;36.28;;;8.68;;
33279;SDS011;20403;43.114;12.434;2024-02-23T14:06:56;41.08;;;9.70;;
33279;SDS011;20403;43.114;12.434;2024-02-23T14:09:21;34.50;;;9.05;;
33279;SDS011;20403;43.114;12.434;2024-02-23T14:11:47;41.10;;;9.63;;
33279;SDS011;20403;43.114;12.434;2024-02-23T14:14:13;31.75;;;8.15;;
33279;SDS011;20403;43.114;12.434;2024-02-23T14:16:38;40.45;;;10.23;;
33279;SDS011;20403;43.114;12.434;2024-02-23T14:19:04;47.70;;;10.50;;
33279;SDS011;20403;43.114;12.434;2024-02-23T14:21:30;42.22;;;10.00;;